sensor_id;sensor_type;location;lat;lon;timestamp;P1;durP1;ratioP1;P2;durP2;ratioP2
68224;SDS011;57497;43.322;21.932;2022-10-16T00:00:34;16.6;;;11.6;;
68224;SDS011;57497;43.322;21.932;2022-10-16T00:05:32;19.4;;;13.2;;
68224;SDS011;57497;43.322;21.932;2022-10-16T00:10:33;16.8;;;11.2;;
68224;SDS011;57497;43.322;21.932;2022-10-16T00:15:33;17.1;;;12.4;;
68224;SDS011;57497;43.322;21.932;2022-10-16T00:20:33;14.9;;;10.1;;
68224;SDS011;57497;43.322;21.932;2022-10-16T00:25:33;24.7;;;11.8;;
68224;SDS011;57497;43.322;21.932;2022-10-16T00:30:33;16.2;;;10.4;;
68224;SDS011;57497;43.322;21.932;2022-10-16T00:35:33;14.9;;;10.9;;
68224;SDS011;57497;43.322;21.932;2022-10-16T00:40:33;16.5;;;10.5;;
68224;SDS011;57497;43.322;21.932;2022-10-16T00:45:33;18.7;;;10;;
68224;SDS011;57497;43.322;21.932;2022-10-16T00:50:33;16.5;;;11;;
68224;SDS011;57497;43.322;21.932;2022-10-16T00:55:33;12.8;;;9;;
68224;SDS011;57497;43.322;21.932;2022-10-16T01:00:33;11.1;;;7.1;;
68224;SDS011;57497;43.322;21.932;2022-10-16T01:05:34;14.5;;;8;;
68224;SDS011;57497;43.322;21.932;2022-10-16T01:10:34;11.7;;;8.1;;
68224;SDS011;57497;43.322;21.932;2022-10-16T01:15:34;14.2;;;8.5;;
68224;SDS011;57497;43.322;21.932;2022-10-16T01:20:33;16.6;;;7.4;;
68224;SDS011;57497;43.322;21.932;2022-10-16T01:25:38;13.5;;;5.9;;
68224;SDS011;57497;43.322;21.932;2022-10-16T01:30:33;13.5;;;7.5;;
68224;SDS011;57497;43.322;21.932;2022-10-16T01:35:34;13.9;;;8.9;;
68224;SDS011;57497;43.322;21.932;2022-10-16T01:40:33;13.5;;;7.7;;
68224;SDS011;57497;43.322;21.932;2022-10-16T01:45:33;14.1;;;7.6;;
68224;SDS011;57497;43.322;21.932;2022-10-16T01:50:33;11.4;;;6.7;;
68224;SDS011;57497;43.322;21.932;2022-10-16T01:55:33;10;;;7.3;;
68224;SDS011;57497;43.322;21.932;2022-10-16T02:00:34;10.3;;;7.8;;
68224;SDS011;57497;43.322;21.932;2022-10-16T02:05:34;13.3;;;8.1;;
68224;SDS011;57497;43.322;21.932;2022-10-16T02:10:34;14.7;;;8;;
68224;SDS011;57497;43.322;21.932;2022-10-16T02:15:33;16.3;;;9.2;;
68224;SDS011;57497;43.322;21.932;2022-10-16T02:20:34;15;;;8.5;;
68224;SDS011;57497;43.322;21.932;2022-10-16T02:25:34;15;;;9.4;;
68224;SDS011;57497;43.322;21.932;2022-10-16T02:30:33;10.8;;;8.6;;
68224;SDS011;57497;43.322;21.932;2022-10-16T02:35:33;15.7;;;7;;
68224;SDS011;57497;43.322;21.932;2022-10-16T02:40:33;18.1;;;6.8;;
68224;SDS011;57497;43.322;21.932;2022-10-16T02:45:33;11.5;;;6.1;;
68224;SDS011;57497;43.322;21.932;2022-10-16T02:50:33;13.5;;;6.4;;
68224;SDS011;57497;43.322;21.932;2022-10-16T02:55:33;14.1;;;8.5;;
68224;SDS011;57497;43.322;21.932;2022-10-16T03:00:33;18.2;;;9.9;;
68224;SDS011;57497;43.322;21.932;2022-10-16T03:05:33;18.6;;;9.4;;
68224;SDS011;57497;43.322;21.932;2022-10-16T03:10:33;12.7;;;7.8;;
68224;SDS011;57497;43.322;21.932;2022-10-16T03:15:33;13;;;7.7;;
68224;SDS011;57497;43.322;21.932;2022-10-16T03:20:33;28.9;;;7.2;;
68224;SDS011;57497;43.322;21.932;2022-10-16T03:25:33;14.7;;;6.4;;
68224;SDS011;57497;43.322;21.932;2022-10-16T03:30:33;13.4;;;6.5;;
68224;SDS011;57497;43.322;21.932;2022-10-16T03:35:32;10.1;;;5.6;;
68224;SDS011;57497;43.322;21.932;2022-10-16T03:40:33;18.8;;;6.3;;
68224;SDS011;57497;43.322;21.932;2022-10-16T03:45:33;8.2;;;5.6;;
68224;SDS011;57497;43.322;21.932;2022-10-16T03:50:33;17.7;;;7.2;;
68224;SDS011;57497;43.322;21.932;2022-10-16T03:55:34;9.7;;;7;;
68224;SDS011;57497;43.322;21.932;2022-10-16T04:00:34;10;;;6.6;;
68224;SDS011;57497;43.322;21.932;2022-10-16T04:05:33;13.3;;;5.7;;
68224;SDS011;57497;43.322;21.932;2022-10-16T04:10:33;13.4;;;7.7;;
68224;SDS011;57497;43.322;21.932;2022-10-16T04:15:33;11;;;6.3;;
68224;SDS011;57497;43.322;21.932;2022-10-16T04:20:33;10.3;;;5.9;;
68224;SDS011;57497;43.322;21.932;2022-10-16T04:25:33;12.4;;;6.2;;
68224;SDS011;57497;43.322;21.932;2022-10-16T04:30:33;15.5;;;6.1;;
68224;SDS011;57497;43.322;21.932;2022-10-16T04:35:33;9.3;;;6.6;;
68224;SDS011;57497;43.322;21.932;2022-10-16T04:40:33;11.3;;;7;;
68224;SDS011;57497;43.322;21.932;2022-10-16T04:45:33;14.7;;;6.7;;
68224;SDS011;57497;43.322;21.932;2022-10-16T04:50:33;11.6;;;8;;
68224;SDS011;57497;43.322;21.932;2022-10-16T04:55:33;15.5;;;8.5;;
68224;SDS011;57497;43.322;21.932;2022-10-16T05:00:33;18.2;;;8.4;;
68224;SDS011;57497;43.322;21.932;2022-10-16T05:05:33;25.4;;;10.4;;
68224;SDS011;57497;43.322;21.932;2022-10-16T05:10:33;22.5;;;9.2;;
68224;SDS011;57497;43.322;21.932;2022-10-16T05:15:33;15.7;;;9.5;;
68224;SDS011;57497;43.322;21.932;2022-10-16T05:20:33;16;;;9;;
68224;SDS011;57497;43.322;21.932;2022-10-16T05:25:33;49.4;;;10.7;;
68224;SDS011;57497;43.322;21.932;2022-10-16T05:30:33;13.3;;;8.6;;
68224;SDS011;57497;43.322;21.932;2022-10-16T05:35:33;39.4;;;8.9;;
68224;SDS011;57497;43.322;21.932;2022-10-16T05:40:33;14.2;;;9.4;;
68224;SDS011;57497;43.322;21.932;2022-10-16T05:45:34;13.8;;;9.8;;
68224;SDS011;57497;43.322;21.932;2022-10-16T05:50:33;26.9;;;12.1;;
68224;SDS011;57497;43.322;21.932;2022-10-16T05:55:33;22.8;;;11;;
68224;SDS011;57497;43.322;21.932;2022-10-16T06:00:33;16.5;;;11.2;;
68224;SDS011;57497;43.322;21.932;2022-10-16T06:05:32;45.5;;;11.5;;
68224;SDS011;57497;43.322;21.932;2022-10-16T06:10:33;20.1;;;12.6;;
68224;SDS011;57497;43.322;21.932;2022-10-16T06:15:33;18.5;;;12.8;;
68224;SDS011;57497;43.322;21.932;2022-10-16T06:20:33;22.8;;;14;;
68224;SDS011;57497;43.322;21.932;2022-10-16T06:25:33;24.7;;;14.5;;
68224;SDS011;57497;43.322;21.932;2022-10-16T06:30:33;12.5;;;9.5;;
68224;SDS011;57497;43.322;21.932;2022-10-16T06:35:32;13.1;;;9.7;;
68224;SDS011;57497;43.322;21.932;2022-10-16T06:40:32;14.7;;;9.2;;
68224;SDS011;57497;43.322;21.932;2022-10-16T06:45:33;14.6;;;9.3;;
68224;SDS011;57497;43.322;21.932;2022-10-16T06:50:33;15.8;;;10.7;;
68224;SDS011;57497;43.322;21.932;2022-10-16T06:55:33;17.1;;;12.5;;
68224;SDS011;57497;43.322;21.932;2022-10-16T07:00:34;9.8;;;7.2;;
68224;SDS011;57497;43.322;21.932;2022-10-16T07:05:36;8.1;;;6.9;;
68224;SDS011;57497;43.322;21.932;2022-10-16T07:10:33;12.7;;;7.4;;
68224;SDS011;57497;43.322;21.932;2022-10-16T07:15:33;12.2;;;6.5;;
68224;SDS011;57497;43.322;21.932;2022-10-16T07:20:33;10.2;;;6.4;;
68224;SDS011;57497;43.322;21.932;2022-10-16T07:25:33;12.7;;;5.8;;
68224;SDS011;57497;43.322;21.932;2022-10-16T07:30:34;13.5;;;9.3;;
68224;SDS011;57497;43.322;21.932;2022-10-16T07:35:33;18.9;;;12.1;;
68224;SDS011;57497;43.322;21.932;2022-10-16T07:40:33;28.9;;;14.8;;
68224;SDS011;57497;43.322;21.932;2022-10-16T07:45:33;16.4;;;12.4;;
68224;SDS011;57497;43.322;21.932;2022-10-16T07:50:33;22.2;;;13.2;;
68224;SDS011;57497;43.322;21.932;2022-10-16T07:55:33;15.6;;;10.4;;
68224;SDS011;57497;43.322;21.932;2022-10-16T08:00:33;16.4;;;11.8;;
68224;SDS011;57497;43.322;21.932;2022-10-16T08:05:33;25.2;;;8.9;;
68224;SDS011;57497;43.322;21.932;2022-10-16T08:10:33;20;;;10.2;;
68224;SDS011;57497;43.322;21.932;2022-10-16T08:15:33;20.6;;;12;;
68224;SDS011;57497;43.322;21.932;2022-10-16T08:20:33;14.6;;;8.2;;
68224;SDS011;57497;43.322;21.932;2022-10-16T08:25:34;16.8;;;13.2;;
68224;SDS011;57497;43.322;21.932;2022-10-16T08:30:33;29.4;;;10.6;;
68224;SDS011;57497;43.322;21.932;2022-10-16T08:35:33;18;;;10.7;;
68224;SDS011;57497;43.322;21.932;2022-10-16T08:40:33;11.3;;;7.4;;
68224;SDS011;57497;43.322;21.932;2022-10-16T08:45:34;14.4;;;9.7;;
68224;SDS011;57497;43.322;21.932;2022-10-16T08:50:33;13.9;;;8.8;;
68224;SDS011;57497;43.322;21.932;2022-10-16T08:55:34;12;;;8.9;;
68224;SDS011;57497;43.322;21.932;2022-10-16T09:00:33;11.2;;;7.4;;
68224;SDS011;57497;43.322;21.932;2022-10-16T09:05:40;14;;;9;;
68224;SDS011;57497;43.322;21.932;2022-10-16T09:10:37;13.3;;;9.2;;
68224;SDS011;57497;43.322;21.932;2022-10-16T09:15:34;11.9;;;7.9;;
68224;SDS011;57497;43.322;21.932;2022-10-16T09:20:34;11.8;;;9.3;;
68224;SDS011;57497;43.322;21.932;2022-10-16T09:25:32;15;;;7.3;;
68224;SDS011;57497;43.322;21.932;2022-10-16T09:30:33;10.7;;;8.6;;
68224;SDS011;57497;43.322;21.932;2022-10-16T09:35:35;14.1;;;8.8;;
68224;SDS011;57497;43.322;21.932;2022-10-16T09:40:33;10.7;;;7.8;;
68224;SDS011;57497;43.322;21.932;2022-10-16T09:45:33;14.1;;;7.2;;
68224;SDS011;57497;43.322;21.932;2022-10-16T09:50:32;13.2;;;8.4;;
68224;SDS011;57497;43.322;21.932;2022-10-16T09:55:33;15.2;;;7.6;;
68224;SDS011;57497;43.322;21.932;2022-10-16T10:00:34;23.3;;;7.8;;
68224;SDS011;57497;43.322;21.932;2022-10-16T10:05:33;11.4;;;7.3;;
68224;SDS011;57497;43.322;21.932;2022-10-16T10:10:34;17.7;;;7.9;;
68224;SDS011;57497;43.322;21.932;2022-10-16T10:15:34;14.6;;;8.4;;
68224;SDS011;57497;43.322;21.932;2022-10-16T10:20:34;10.7;;;9;;
68224;SDS011;57497;43.322;21.932;2022-10-16T10:25:38;16.6;;;6.7;;
68224;SDS011;57497;43.322;21.932;2022-10-16T10:30:34;9;;;6.5;;
68224;SDS011;57497;43.322;21.932;2022-10-16T10:35:34;10;;;7.3;;
68224;SDS011;57497;43.322;21.932;2022-10-16T10:40:37;10.8;;;7.8;;
68224;SDS011;57497;43.322;21.932;2022-10-16T10:45:37;13.1;;;8.6;;
68224;SDS011;57497;43.322;21.932;2022-10-16T10:50:34;15.1;;;6.4;;
68224;SDS011;57497;43.322;21.932;2022-10-16T10:55:36;16.6;;;6.9;;
68224;SDS011;57497;43.322;21.932;2022-10-16T11:00:37;11;;;6.3;;
68224;SDS011;57497;43.322;21.932;2022-10-16T11:05:36;8.3;;;6.5;;
68224;SDS011;57497;43.322;21.932;2022-10-16T11:10:34;8.1;;;6;;
68224;SDS011;57497;43.322;21.932;2022-10-16T11:15:34;9.1;;;6.7;;
68224;SDS011;57497;43.322;21.932;2022-10-16T11:20:34;10.6;;;7.1;;
68224;SDS011;57497;43.322;21.932;2022-10-16T11:25:33;7.1;;;5.4;;
68224;SDS011;57497;43.322;21.932;2022-10-16T11:30:39;8.3;;;6.3;;
68224;SDS011;57497;43.322;21.932;2022-10-16T11:35:37;9.3;;;7;;
68224;SDS011;57497;43.322;21.932;2022-10-16T11:40:32;12.8;;;6.1;;
68224;SDS011;57497;43.322;21.932;2022-10-16T11:45:33;6.8;;;5.6;;
68224;SDS011;57497;43.322;21.932;2022-10-16T11:50:36;9;;;6.1;;
68224;SDS011;57497;43.322;21.932;2022-10-16T11:55:34;6.1;;;4.6;;
68224;SDS011;57497;43.322;21.932;2022-10-16T12:00:35;13.4;;;8.8;;
68224;SDS011;57497;43.322;21.932;2022-10-16T12:05:35;11.9;;;7.9;;
68224;SDS011;57497;43.322;21.932;2022-10-16T12:10:33;7;;;4.7;;
68224;SDS011;57497;43.322;21.932;2022-10-16T12:15:33;7.1;;;5.5;;
68224;SDS011;57497;43.322;21.932;2022-10-16T12:20:33;7.3;;;5.5;;
68224;SDS011;57497;43.322;21.932;2022-10-16T12:25:33;7.9;;;6.3;;
68224;SDS011;57497;43.322;21.932;2022-10-16T12:30:35;14.7;;;10.8;;
68224;SDS011;57497;43.322;21.932;2022-10-16T12:35:33;16;;;6.3;;
68224;SDS011;57497;43.322;21.932;2022-10-16T12:40:33;6.8;;;5.2;;
68224;SDS011;57497;43.322;21.932;2022-10-16T12:45:33;19.4;;;7.3;;
68224;SDS011;57497;43.322;21.932;2022-10-16T12:50:33;9.7;;;6.7;;
68224;SDS011;57497;43.322;21.932;2022-10-16T12:55:34;7.4;;;6;;
68224;SDS011;57497;43.322;21.932;2022-10-16T13:00:35;8.8;;;6.3;;
68224;SDS011;57497;43.322;21.932;2022-10-16T13:05:35;9.8;;;6.6;;
68224;SDS011;57497;43.322;21.932;2022-10-16T13:10:34;7.6;;;4.9;;
68224;SDS011;57497;43.322;21.932;2022-10-16T13:15:38;5.4;;;4.7;;
68224;SDS011;57497;43.322;21.932;2022-10-16T13:20:36;6;;;3.9;;
68224;SDS011;57497;43.322;21.932;2022-10-16T13:25:36;105.6;;;53.2;;
68224;SDS011;57497;43.322;21.932;2022-10-16T13:30:34;38.4;;;18.7;;
68224;SDS011;57497;43.322;21.932;2022-10-16T13:35:34;28.3;;;14.5;;
68224;SDS011;57497;43.322;21.932;2022-10-16T13:40:33;10.1;;;6.6;;
68224;SDS011;57497;43.322;21.932;2022-10-16T13:45:32;13.8;;;8;;
68224;SDS011;57497;43.322;21.932;2022-10-16T13:50:33;15.4;;;14.2;;
68224;SDS011;57497;43.322;21.932;2022-10-16T13:55:32;20.2;;;18.8;;
68224;SDS011;57497;43.322;21.932;2022-10-16T14:00:33;64.9;;;60.8;;
68224;SDS011;57497;43.322;21.932;2022-10-16T14:05:33;1999.9;;;999.9;;
68224;SDS011;57497;43.322;21.932;2022-10-16T14:10:33;1999.9;;;999.9;;
68224;SDS011;57497;43.322;21.932;2022-10-16T14:15:34;1999.9;;;999.9;;
68224;SDS011;57497;43.322;21.932;2022-10-16T14:20:33;76.7;;;72.2;;
68224;SDS011;57497;43.322;21.932;2022-10-16T14:25:33;1999.9;;;999.9;;
68224;SDS011;57497;43.322;21.932;2022-10-16T14:30:34;1999.9;;;999.9;;
68224;SDS011;57497;43.322;21.932;2022-10-16T14:35:34;1999.9;;;999.9;;
68224;SDS011;57497;43.322;21.932;2022-10-16T14:40:34;1999.9;;;999.9;;
68224;SDS011;57497;43.322;21.932;2022-10-16T14:45:33;52.3;;;48.8;;
68224;SDS011;57497;43.322;21.932;2022-10-16T14:50:33;6.5;;;3.9;;
68224;SDS011;57497;43.322;21.932;2022-10-16T14:55:33;15;;;5.7;;
68224;SDS011;57497;43.322;21.932;2022-10-16T15:00:33;16.9;;;5.5;;
68224;SDS011;57497;43.322;21.932;2022-10-16T15:05:33;10.4;;;5.7;;
68224;SDS011;57497;43.322;21.932;2022-10-16T15:10:35;13.2;;;8;;
68224;SDS011;57497;43.322;21.932;2022-10-16T15:15:34;12.3;;;6.5;;
68224;SDS011;57497;43.322;21.932;2022-10-16T15:20:34;10.8;;;5.1;;
68224;SDS011;57497;43.322;21.932;2022-10-16T15:25:35;8.1;;;6.1;;
68224;SDS011;57497;43.322;21.932;2022-10-16T15:30:33;15.1;;;7.1;;
68224;SDS011;57497;43.322;21.932;2022-10-16T15:35:33;8.1;;;5.8;;
68224;SDS011;57497;43.322;21.932;2022-10-16T15:40:33;11;;;6.7;;
68224;SDS011;57497;43.322;21.932;2022-10-16T15:45:33;7.5;;;5.2;;
68224;SDS011;57497;43.322;21.932;2022-10-16T15:50:32;15.9;;;5.8;;
68224;SDS011;57497;43.322;21.932;2022-10-16T15:55:33;10.2;;;5.5;;
68224;SDS011;57497;43.322;21.932;2022-10-16T16:00:34;7.1;;;5.1;;
68224;SDS011;57497;43.322;21.932;2022-10-16T16:05:33;17.4;;;5.7;;
68224;SDS011;57497;43.322;21.932;2022-10-16T16:10:32;8.1;;;5.7;;
68224;SDS011;57497;43.322;21.932;2022-10-16T16:15:33;7.1;;;5.2;;
68224;SDS011;57497;43.322;21.932;2022-10-16T16:20:33;9.1;;;6.1;;
68224;SDS011;57497;43.322;21.932;2022-10-16T16:25:32;7;;;5;;
68224;SDS011;57497;43.322;21.932;2022-10-16T16:30:33;9.7;;;5.5;;
68224;SDS011;57497;43.322;21.932;2022-10-16T16:35:33;7.2;;;5.2;;
68224;SDS011;57497;43.322;21.932;2022-10-16T16:40:33;16.5;;;6.7;;
68224;SDS011;57497;43.322;21.932;2022-10-16T16:45:34;7.9;;;5.1;;
68224;SDS011;57497;43.322;21.932;2022-10-16T16:50:34;14.1;;;4.3;;
68224;SDS011;57497;43.322;21.932;2022-10-16T16:55:33;7.6;;;5.2;;
68224;SDS011;57497;43.322;21.932;2022-10-16T17:00:34;7.7;;;6.1;;
68224;SDS011;57497;43.322;21.932;2022-10-16T17:05:32;8.5;;;7;;
68224;SDS011;57497;43.322;21.932;2022-10-16T17:10:33;10;;;6.8;;
68224;SDS011;57497;43.322;21.932;2022-10-16T17:15:33;11.8;;;6.8;;
68224;SDS011;57497;43.322;21.932;2022-10-16T17:20:35;20.9;;;6.6;;
68224;SDS011;57497;43.322;21.932;2022-10-16T17:25:35;17;;;6.5;;
68224;SDS011;57497;43.322;21.932;2022-10-16T17:30:33;13.1;;;9.9;;
68224;SDS011;57497;43.322;21.932;2022-10-16T17:35:35;7.9;;;5.5;;
68224;SDS011;57497;43.322;21.932;2022-10-16T17:40:33;14.1;;;6.9;;
68224;SDS011;57497;43.322;21.932;2022-10-16T17:45:35;10.5;;;7.1;;
68224;SDS011;57497;43.322;21.932;2022-10-16T17:50:33;14.6;;;5.5;;
68224;SDS011;57497;43.322;21.932;2022-10-16T17:55:36;30.3;;;11.3;;
68224;SDS011;57497;43.322;21.932;2022-10-16T18:00:33;14;;;7.8;;
68224;SDS011;57497;43.322;21.932;2022-10-16T18:05:36;10.8;;;6.2;;
68224;SDS011;57497;43.322;21.932;2022-10-16T18:10:33;9.7;;;6;;
68224;SDS011;57497;43.322;21.932;2022-10-16T18:15:33;10.2;;;5.9;;
68224;SDS011;57497;43.322;21.932;2022-10-16T18:20:33;9.4;;;7.1;;
68224;SDS011;57497;43.322;21.932;2022-10-16T18:25:33;10.4;;;7.9;;
68224;SDS011;57497;43.322;21.932;2022-10-16T18:30:33;15.4;;;6.6;;
68224;SDS011;57497;43.322;21.932;2022-10-16T18:35:34;10.8;;;6.7;;
68224;SDS011;57497;43.322;21.932;2022-10-16T18:40:34;50.7;;;15.2;;
68224;SDS011;57497;43.322;21.932;2022-10-16T18:45:33;11.8;;;6.2;;
68224;SDS011;57497;43.322;21.932;2022-10-16T18:50:33;9.3;;;6.5;;
68224;SDS011;57497;43.322;21.932;2022-10-16T18:55:33;18.6;;;11.1;;
68224;SDS011;57497;43.322;21.932;2022-10-16T19:00:34;14.7;;;8;;
68224;SDS011;57497;43.322;21.932;2022-10-16T19:05:33;16.2;;;6.8;;
68224;SDS011;57497;43.322;21.932;2022-10-16T19:10:35;13.2;;;6.6;;
68224;SDS011;57497;43.322;21.932;2022-10-16T19:15:32;18.2;;;7.1;;
68224;SDS011;57497;43.322;21.932;2022-10-16T19:20:33;12.9;;;7.7;;
68224;SDS011;57497;43.322;21.932;2022-10-16T19:25:35;16.1;;;9.2;;
68224;SDS011;57497;43.322;21.932;2022-10-16T19:30:35;14.9;;;9;;
68224;SDS011;57497;43.322;21.932;2022-10-16T19:35:33;12.9;;;9;;
68224;SDS011;57497;43.322;21.932;2022-10-16T19:40:33;23;;;11;;
68224;SDS011;57497;43.322;21.932;2022-10-16T19:45:33;22.2;;;11.6;;
68224;SDS011;57497;43.322;21.932;2022-10-16T19:50:33;17.3;;;11.8;;
68224;SDS011;57497;43.322;21.932;2022-10-16T19:55:33;35;;;13.1;;
68224;SDS011;57497;43.322;21.932;2022-10-16T20:00:33;23.2;;;14.9;;
68224;SDS011;57497;43.322;21.932;2022-10-16T20:05:33;19.4;;;12.6;;
68224;SDS011;57497;43.322;21.932;2022-10-16T20:10:33;14.1;;;10.4;;
68224;SDS011;57497;43.322;21.932;2022-10-16T20:15:35;19.9;;;15.2;;
68224;SDS011;57497;43.322;21.932;2022-10-16T20:20:35;22.2;;;16.1;;
68224;SDS011;57497;43.322;21.932;2022-10-16T20:25:34;32.6;;;17.7;;
68224;SDS011;57497;43.322;21.932;2022-10-16T20:30:34;25.2;;;16.9;;
68224;SDS011;57497;43.322;21.932;2022-10-16T20:35:34;27.5;;;16.6;;
68224;SDS011;57497;43.322;21.932;2022-10-16T20:40:33;29.6;;;17.5;;
68224;SDS011;57497;43.322;21.932;2022-10-16T20:45:33;31.3;;;16.4;;
68224;SDS011;57497;43.322;21.932;2022-10-16T20:50:33;24.5;;;17.4;;
68224;SDS011;57497;43.322;21.932;2022-10-16T20:55:34;34;;;24.5;;
68224;SDS011;57497;43.322;21.932;2022-10-16T21:00:34;16.5;;;13.9;;
68224;SDS011;57497;43.322;21.932;2022-10-16T21:05:33;23.8;;;13.4;;
68224;SDS011;57497;43.322;21.932;2022-10-16T21:10:33;23.3;;;14.4;;
68224;SDS011;57497;43.322;21.932;2022-10-16T21:15:33;29.6;;;13.8;;
68224;SDS011;57497;43.322;21.932;2022-10-16T21:20:33;26.4;;;14.3;;
68224;SDS011;57497;43.322;21.932;2022-10-16T21:25:33;20.5;;;14;;
68224;SDS011;57497;43.322;21.932;2022-10-16T21:30:32;21.7;;;14;;
68224;SDS011;57497;43.322;21.932;2022-10-16T21:35:33;22.8;;;12.8;;
68224;SDS011;57497;43.322;21.932;2022-10-16T21:40:32;24.4;;;12.9;;
68224;SDS011;57497;43.322;21.932;2022-10-16T21:45:32;17.5;;;11.9;;
68224;SDS011;57497;43.322;21.932;2022-10-16T21:50:33;18.8;;;10.8;;
68224;SDS011;57497;43.322;21.932;2022-10-16T21:55:34;17.6;;;11.1;;
68224;SDS011;57497;43.322;21.932;2022-10-16T22:00:35;17.5;;;11.8;;
68224;SDS011;57497;43.322;21.932;2022-10-16T22:05:33;17.9;;;12.9;;
68224;SDS011;57497;43.322;21.932;2022-10-16T22:10:33;32.2;;;14.2;;
68224;SDS011;57497;43.322;21.932;2022-10-16T22:15:33;19.8;;;12.4;;
68224;SDS011;57497;43.322;21.932;2022-10-16T22:20:33;18.7;;;11.8;;
68224;SDS011;57497;43.322;21.932;2022-10-16T22:25:33;23.1;;;12.4;;
68224;SDS011;57497;43.322;21.932;2022-10-16T22:30:33;21.9;;;12;;
68224;SDS011;57497;43.322;21.932;2022-10-16T22:35:34;27;;;11.9;;
68224;SDS011;57497;43.322;21.932;2022-10-16T22:40:33;20.8;;;11.5;;
68224;SDS011;57497;43.322;21.932;2022-10-16T22:45:34;35.9;;;13.1;;
68224;SDS011;57497;43.322;21.932;2022-10-16T22:50:33;31.1;;;14.9;;
68224;SDS011;57497;43.322;21.932;2022-10-16T22:55:33;24.1;;;16.2;;
68224;SDS011;57497;43.322;21.932;2022-10-16T23:00:34;29.1;;;15.9;;
68224;SDS011;57497;43.322;21.932;2022-10-16T23:05:36;27.9;;;13.9;;
68224;SDS011;57497;43.322;21.932;2022-10-16T23:10:34;21.4;;;13.6;;
68224;SDS011;57497;43.322;21.932;2022-10-16T23:15:33;20.9;;;11.6;;
68224;SDS011;57497;43.322;21.932;2022-10-16T23:20:32;24.8;;;13.4;;
68224;SDS011;57497;43.322;21.932;2022-10-16T23:25:33;27.5;;;12;;
68224;SDS011;57497;43.322;21.932;2022-10-16T23:30:33;20.5;;;13.3;;
68224;SDS011;57497;43.322;21.932;2022-10-16T23:35:33;24.4;;;11.2;;
68224;SDS011;57497;43.322;21.932;2022-10-16T23:40:33;14.4;;;9.8;;
68224;SDS011;57497;43.322;21.932;2022-10-16T23:45:33;16.1;;;9;;
68224;SDS011;57497;43.322;21.932;2022-10-16T23:50:33;16.2;;;9.8;;
68224;SDS011;57497;43.322;21.932;2022-10-16T23:55:33;20.8;;;11.3;;
